createdAt,value
2019-03-25T00:01:23.862Z,87.97
2019-03-25T00:03:54.463Z,85.13
2019-03-25T00:06:24.950Z,89.13
2019-03-25T00:09:04.808Z,82.80
2019-03-25T00:11:27.231Z,98.23
2019-03-25T00:13:57.710Z,77.83
2019-03-25T00:16:29.872Z,83.87
2019-03-25T00:18:59.993Z,75.67
2019-03-25T00:21:30.234Z,100.20
2019-03-25T00:24:01.078Z,82.23
2019-03-25T00:26:31.558Z,87.93
2019-03-25T00:29:01.682Z,85.60
2019-03-25T00:31:32.162Z,90.07
2019-03-25T00:34:02.644Z,86.00
2019-03-25T00:36:33.126Z,94.43
2019-03-25T00:39:03.729Z,96.10
2019-03-25T00:41:33.969Z,96.53
2019-03-25T00:44:04.209Z,108.10
2019-03-25T00:46:34.811Z,97.33
2019-03-25T00:49:04.934Z,89.37
2019-03-25T00:51:35.654Z,103.70
2019-03-25T00:54:05.903Z,87.03
2019-03-25T00:56:36.378Z,108.93
2019-03-25T00:59:06.636Z,97.70
2019-03-25T01:01:36.863Z,94.00
2019-03-25T01:04:06.982Z,115.47
2019-03-25T01:06:37.344Z,91.07
2019-03-25T01:09:08.192Z,99.47
2019-03-25T01:11:48.654Z,92.63
2019-03-25T01:14:10.594Z,98.60
2019-03-25T01:16:40.832Z,100.27
2019-03-25T01:19:11.914Z,98.97
2019-03-25T01:21:42.637Z,105.93
2019-03-25T01:24:12.757Z,93.47
2019-03-25T01:26:43.839Z,90.57
2019-03-25T01:29:14.079Z,96.83
2019-03-25T01:31:44.560Z,101.20
2019-03-25T01:34:14.683Z,100.00
2019-03-25T01:36:45.283Z,109.83
2019-03-25T01:39:15.772Z,105.30
2019-03-25T01:41:46.368Z,104.33
2019-03-25T01:44:16.488Z,96.17
2019-03-25T01:46:46.973Z,94.97
2019-03-25T01:49:17.093Z,90.90
2019-03-25T01:51:48.056Z,114.53
2019-03-25T01:54:18.294Z,107.10
2019-03-25T01:56:48.780Z,99.63
2019-03-25T01:59:19.261Z,96.40
2019-03-25T02:01:49.741Z,94.80
2019-03-25T02:04:19.864Z,101.67
2019-03-25T02:06:50.584Z,103.53
2019-03-25T02:09:20.706Z,97.37
2019-03-25T02:11:51.549Z,98.23
2019-03-25T02:14:21.669Z,97.73
2019-03-25T02:16:51.911Z,101.63
2019-03-25T02:19:22.031Z,88.90
2019-03-25T02:21:52.636Z,87.33
2019-03-25T02:24:22.754Z,88.37
2019-03-25T02:26:53.358Z,88.20
2019-03-25T02:29:23.842Z,90.97
2019-03-25T02:31:54.202Z,89.97
2019-03-25T02:34:24.442Z,97.00
2019-03-25T02:36:55.056Z,90.67
2019-03-25T02:39:25.646Z,93.70
2019-03-25T02:42:14.968Z,89.70
2019-03-25T02:44:45.452Z,85.20
2019-03-25T02:47:15.811Z,84.70
2019-03-25T02:49:46.054Z,87.43
2019-03-25T02:52:16.897Z,90.50
2019-03-25T02:54:47.145Z,98.53
2019-03-25T02:57:17.498Z,103.13
2019-03-25T02:59:48.580Z,90.50
2019-03-25T03:02:19.302Z,84.93
2019-03-25T03:04:49.791Z,99.03
2019-03-25T03:07:20.507Z,94.60
2019-03-25T03:09:50.750Z,93.70
2019-03-25T03:12:40.068Z,83.63
2019-03-25T03:15:10.795Z,88.03
2019-03-25T03:17:41.153Z,91.80
2019-03-25T03:20:11.876Z,91.70
2019-03-25T03:22:42.718Z,87.60
2019-03-25T03:25:13.325Z,82.80
2019-03-25T03:27:43.920Z,88.07
2019-03-25T03:30:14.167Z,92.30
2019-03-25T03:32:44.762Z,93.00
2019-03-25T03:35:15.124Z,86.97
2019-03-25T03:37:45.729Z,87.27
2019-03-25T03:40:16.929Z,84.10
2019-03-25T03:42:47.291Z,84.30
2019-03-25T03:45:17.771Z,73.53
2019-03-25T03:47:48.133Z,68.27
2019-03-25T03:50:28.819Z,72.47
2019-03-25T03:52:59.897Z,60.40
2019-03-25T03:55:31.464Z,62.47
2019-03-25T03:58:01.818Z,60.80
2019-03-25T04:00:33.980Z,68.63
2019-03-25T04:03:04.706Z,57.63
2019-03-25T04:05:34.951Z,60.40
2019-03-25T04:08:05.306Z,59.87
2019-03-25T04:10:36.416Z,55.77
2019-03-25T04:13:07.113Z,54.27
2019-03-25T04:15:37.351Z,47.23
2019-03-25T04:18:07.594Z,51.20
2019-03-25T04:20:37.954Z,48.97
2019-03-25T04:23:08.915Z,47.33
2019-03-25T04:25:39.641Z,43.20
2019-03-25T04:28:09.998Z,46.40
2019-03-25T04:30:41.085Z,43.00
2019-03-25T04:33:12.162Z,39.23
2019-03-25T04:35:43.243Z,30.33
2019-03-25T04:38:13.965Z,33.83
2019-03-25T04:40:45.049Z,35.00
2019-03-25T04:43:15.768Z,30.87
2019-03-25T04:45:46.008Z,36.80
2019-03-25T04:48:16.370Z,30.93
2019-03-25T04:50:47.091Z,31.80
2019-03-25T04:53:18.300Z,29.87
2019-03-25T04:55:48.535Z,33.53
2019-03-25T04:58:19.259Z,34.03
2019-03-25T05:01:08.463Z,30.57
2019-03-25T05:03:38.820Z,41.23
2019-03-25T05:06:09.302Z,28.40
2019-03-25T05:08:39.663Z,37.20
2019-03-25T05:11:10.265Z,31.23
2019-03-25T05:13:41.106Z,47.27
2019-03-25T05:16:11.711Z,41.50
2019-03-25T05:18:42.070Z,27.73
2019-03-25T05:21:31.393Z,28.77
2019-03-25T05:24:02.115Z,33.43
2019-03-25T05:26:32.717Z,23.00
2019-03-25T05:29:02.957Z,27.40
2019-03-25T05:31:33.203Z,22.13
2019-03-25T05:34:03.924Z,29.20
2019-03-25T05:36:34.643Z,27.93
2019-03-25T05:39:05.125Z,21.67
2019-03-25T05:41:35.485Z,32.43
2019-03-25T05:44:05.726Z,22.43
2019-03-25T05:46:36.089Z,22.30
2019-03-25T05:49:06.210Z,23.60
2019-03-25T05:51:37.052Z,21.50
2019-03-25T05:54:07.293Z,21.87
2019-03-25T05:57:02.390Z,22.33
2019-03-25T05:59:29.138Z,21.70
2019-03-25T06:01:59.619Z,25.87
2019-03-25T06:04:30.224Z,17.63
2019-03-25T06:07:00.584Z,17.27
2019-03-25T06:09:30.874Z,19.73
2019-03-25T06:12:01.306Z,25.90
2019-03-25T06:14:31.909Z,18.90
2019-03-25T06:17:02.270Z,20.40
2019-03-25T06:19:32.529Z,22.27
2019-03-25T06:22:03.238Z,16.90
2019-03-25T06:24:34.195Z,17.90
2019-03-25T06:27:13.612Z,21.40
2019-03-25T06:29:37.440Z,23.73
2019-03-25T06:32:07.680Z,29.03
2019-03-25T06:34:38.283Z,20.47
2019-03-25T06:37:08.884Z,22.17
2019-03-25T06:39:39.364Z,26.57
2019-03-25T06:42:09.734Z,18.40
2019-03-25T06:44:40.327Z,12.50
2019-03-25T06:47:11.171Z,20.20
2019-03-25T06:49:41.771Z,20.77
2019-03-25T06:52:12.493Z,22.67
2019-03-25T06:54:42.736Z,22.00
2019-03-25T06:57:12.977Z,20.60
2019-03-25T06:59:43.340Z,15.90
2019-03-25T07:02:13.706Z,17.93
2019-03-25T07:04:43.940Z,20.00
2019-03-25T07:07:14.663Z,18.90
2019-03-25T07:09:45.383Z,17.57
2019-03-25T07:12:15.750Z,17.47
2019-03-25T07:14:46.466Z,24.47
2019-03-25T07:17:16.831Z,9.23
2019-03-25T07:19:47.073Z,15.50
2019-03-25T07:22:17.431Z,15.77
2019-03-25T07:24:48.159Z,12.60
2019-03-25T07:27:18.395Z,12.43
2019-03-25T07:29:48.639Z,19.57
2019-03-25T07:32:19.239Z,16.30
2019-03-25T07:34:49.481Z,17.60
2019-03-25T07:37:20.922Z,11.33
2019-03-25T07:39:51.163Z,19.23
2019-03-25T07:42:21.404Z,17.37
2019-03-25T07:44:51.648Z,13.07
2019-03-25T07:47:22.007Z,11.80
2019-03-25T07:49:52.732Z,12.70
2019-03-25T07:52:23.453Z,16.27
2019-03-25T07:54:54.077Z,17.40
2019-03-25T07:57:48.255Z,17.00
2019-03-25T08:00:17.096Z,15.53
2019-03-25T08:02:47.352Z,23.73
2019-03-25T08:05:18.085Z,21.70
2019-03-25T08:07:48.924Z,16.97
2019-03-25T08:10:31.383Z,10.70
2019-03-25T08:13:01.656Z,23.97
2019-03-25T08:15:32.619Z,13.57
2019-03-25T08:18:03.309Z,10.63
2019-03-25T08:20:33.672Z,15.97
2019-03-25T08:23:04.512Z,14.05
2019-03-25T08:25:34.994Z,11.75
2019-03-25T08:28:05.719Z,12.47
2019-03-25T08:30:36.317Z,10.53
2019-03-25T08:33:07.040Z,9.27
2019-03-25T08:35:37.646Z,27.53
2019-03-25T08:38:08.362Z,17.10
2019-03-25T08:40:38.603Z,13.63
2019-03-25T08:43:08.964Z,42.80
2019-03-25T08:45:39.208Z,11.47
2019-03-25T08:48:09.569Z,13.73
2019-03-25T08:50:40.291Z,8.57
2019-03-25T08:53:10.890Z,20.20
2019-03-25T08:55:41.973Z,9.00
2019-03-25T08:58:12.579Z,7.10
2019-03-25T09:00:43.234Z,7.30
2019-03-25T09:03:14.379Z,7.00
2019-03-25T09:05:44.622Z,10.83
2019-03-25T09:08:14.979Z,12.07
2019-03-25T09:10:45.342Z,10.23
2019-03-25T09:13:16.423Z,12.23
2019-03-25T09:15:47.024Z,8.20
2019-03-25T09:18:17.385Z,13.23
2019-03-25T09:20:47.869Z,20.93
2019-03-25T09:23:18.230Z,5.87
2019-03-25T09:25:48.952Z,13.30
2019-03-25T09:28:24.097Z,14.63
2019-03-25T09:31:20.997Z,9.80
2019-03-25T09:33:51.599Z,10.10
2019-03-25T09:36:22.919Z,7.90
2019-03-25T09:38:53.160Z,13.37
2019-03-25T09:41:24.127Z,11.57
2019-03-25T09:43:55.712Z,9.13
2019-03-25T09:46:25.924Z,5.83
2019-03-25T09:48:56.647Z,6.10
2019-03-25T09:51:27.367Z,7.00
2019-03-25T09:53:57.612Z,15.60
2019-03-25T09:56:27.851Z,7.13
2019-03-25T09:58:58.215Z,4.97
2019-03-25T10:01:28.464Z,7.90
2019-03-25T10:03:58.818Z,4.63
2019-03-25T10:06:29.299Z,9.90
2019-03-25T10:09:00.146Z,7.87
2019-03-25T10:11:30.382Z,9.40
2019-03-25T10:14:00.563Z,8.67
2019-03-25T10:16:30.867Z,11.63
2019-03-25T10:19:01.706Z,5.50
2019-03-25T10:21:32.310Z,16.67
2019-03-25T10:24:02.687Z,6.53
2019-03-25T10:26:33.271Z,5.87
2019-03-25T10:29:03.516Z,8.67
2019-03-25T10:31:33.879Z,5.70
2019-03-25T10:34:04.236Z,6.03
2019-03-25T10:36:34.358Z,4.03
2019-03-25T10:39:06.162Z,6.87
2019-03-25T10:41:38.487Z,12.47
2019-03-25T10:44:09.165Z,8.33
2019-03-25T10:46:39.644Z,6.60
2019-03-25T10:49:10.006Z,10.83
2019-03-25T10:51:40.248Z,5.37
2019-03-25T10:54:10.609Z,6.73
2019-03-25T10:56:48.828Z,6.22
2019-03-25T10:59:13.135Z,8.38
2019-03-25T11:01:43.374Z,9.68
2019-03-25T11:04:13.977Z,9.80
2019-03-25T11:06:44.706Z,8.58
2019-03-25T11:09:14.948Z,7.10
2019-03-25T11:11:45.663Z,5.10
2019-03-25T11:14:16.384Z,5.60
2019-03-25T11:16:46.504Z,6.85
2019-03-25T11:19:17.586Z,7.62
2019-03-25T11:21:48.187Z,6.90
2019-03-25T11:24:19.268Z,13.20
2019-03-25T11:26:49.750Z,7.73
2019-03-25T11:29:19.991Z,11.90
2019-03-25T11:31:50.234Z,10.63
2019-03-25T11:34:20.476Z,7.90
2019-03-25T11:36:51.200Z,4.77
2019-03-25T11:39:21.439Z,7.72
2019-03-25T11:41:52.219Z,6.42
2019-03-25T11:44:22.883Z,7.97
2019-03-25T11:46:53.606Z,6.42
2019-03-25T11:49:24.090Z,5.80
2019-03-25T11:51:54.686Z,7.12
2019-03-25T11:54:25.293Z,8.88
2019-03-25T11:56:55.951Z,8.37
2019-03-25T11:59:27.094Z,12.18
2019-03-25T12:04:26.257Z,9.93
2019-03-25T12:06:56.500Z,5.33
2019-03-25T12:09:26.983Z,5.37
2019-03-25T12:11:58.301Z,7.30
2019-03-25T12:14:28.668Z,7.43
2019-03-25T12:16:59.144Z,6.00
2019-03-25T12:19:29.392Z,3.33
2019-03-25T12:22:18.109Z,5.90
2019-03-25T12:24:48.829Z,3.70
2019-03-25T12:27:19.450Z,14.23
2019-03-25T12:29:49.792Z,3.10
2019-03-25T12:32:19.915Z,5.80
2019-03-25T12:35:09.120Z,7.87
2019-03-25T12:37:39.598Z,7.20
2019-03-25T12:40:10.443Z,3.60
2019-03-25T12:42:41.040Z,6.70
2019-03-25T12:45:11.763Z,5.30
2019-03-25T12:47:42.724Z,3.30
2019-03-25T12:50:13.447Z,9.23
2019-03-25T12:52:43.567Z,3.53
2019-03-25T12:55:14.055Z,5.07
2019-03-25T12:57:45.131Z,3.13
2019-03-25T13:00:16.750Z,4.93
2019-03-25T13:02:47.054Z,4.07
2019-03-25T13:05:17.417Z,5.47
2019-03-25T13:07:48.138Z,7.72
2019-03-25T13:10:18.499Z,4.95
2019-03-25T13:12:49.101Z,7.35
2019-03-25T13:15:19.824Z,8.53
2019-03-25T13:17:50.066Z,5.90
2019-03-25T13:20:22.713Z,4.70
2019-03-25T13:22:52.833Z,5.40
2019-03-25T13:25:23.191Z,3.17
2019-03-25T13:27:53.430Z,5.30
2019-03-25T13:30:23.795Z,4.27
2019-03-25T13:32:54.516Z,6.53
2019-03-25T13:35:24.878Z,5.00
2019-03-25T13:37:55.358Z,3.87
2019-03-25T13:40:25.843Z,4.03
2019-03-25T13:42:56.443Z,3.47
2019-03-25T13:45:27.044Z,4.00
2019-03-25T13:47:57.285Z,16.47
2019-03-25T13:50:27.825Z,5.30
2019-03-25T13:52:58.009Z,2.80
2019-03-25T13:55:28.973Z,3.33
2019-03-25T13:57:59.333Z,2.20
2019-03-25T14:00:42.172Z,1.73
2019-03-25T14:03:12.895Z,1.40
2019-03-25T14:05:43.496Z,2.08
2019-03-25T14:08:13.739Z,1.97
2019-03-25T14:10:44.102Z,2.40
2019-03-25T14:13:14.221Z,2.10
2019-03-25T14:15:44.583Z,2.00
2019-03-25T14:18:14.826Z,2.20
2019-03-25T14:20:45.186Z,3.57
2019-03-25T14:23:15.432Z,2.50
2019-03-25T14:25:46.150Z,4.40
2019-03-25T14:28:16.752Z,3.43
2019-03-25T14:30:47.353Z,2.37
2019-03-25T14:33:18.076Z,3.43
2019-03-25T14:35:48.437Z,6.23
2019-03-25T14:38:18.918Z,2.73
2019-03-25T14:40:49.400Z,5.43
2019-03-25T14:43:20.001Z,2.73
2019-03-25T14:45:50.363Z,3.63
2019-03-25T14:48:21.008Z,3.30
2019-03-25T14:50:51.445Z,6.23
2019-03-25T14:53:21.692Z,16.00
2019-03-25T14:55:52.411Z,8.77
2019-03-25T14:58:23.373Z,4.27
2019-03-25T15:00:54.095Z,7.13
2019-03-25T15:03:24.575Z,4.47
2019-03-25T15:05:55.176Z,3.27
2019-03-25T15:08:25.420Z,6.73
2019-03-25T15:10:55.780Z,3.07
2019-03-25T15:13:26.021Z,3.10
2019-03-25T15:15:56.983Z,2.73
2019-03-25T15:18:27.346Z,2.93
2019-03-25T15:20:57.947Z,4.80
2019-03-25T15:25:58.078Z,8.07
2019-03-25T15:28:28.793Z,16.73
2019-03-25T15:30:59.032Z,10.10
2019-03-25T15:33:29.876Z,4.30
2019-03-25T15:36:00.602Z,3.27
2019-03-25T15:38:30.963Z,4.28
2019-03-25T15:41:01.200Z,8.30
2019-03-25T15:43:31.802Z,6.85
2019-03-25T15:46:02.647Z,5.23
2019-03-25T15:48:33.009Z,4.60
2019-03-25T15:51:03.372Z,6.90
2019-03-25T15:53:33.730Z,8.20
2019-03-25T15:56:03.970Z,2.90
2019-03-25T15:58:34.332Z,3.20
2019-03-25T16:01:04.573Z,2.62
2019-03-25T16:03:35.177Z,2.50
2019-03-25T16:06:05.418Z,2.40
2019-03-25T16:08:36.139Z,3.27
2019-03-25T16:11:06.381Z,2.20
2019-03-25T16:13:36.744Z,2.55
2019-03-25T16:16:07.491Z,2.37
2019-03-25T16:18:39.145Z,2.55
2019-03-25T16:21:10.111Z,3.20
2019-03-25T16:23:40.829Z,2.77
2019-03-25T16:26:11.089Z,3.40
2019-03-25T16:28:44.317Z,2.30
2019-03-25T16:31:15.275Z,2.65
2019-03-25T16:33:57.276Z,4.53
2019-03-25T16:36:27.517Z,4.40
2019-03-25T16:38:58.001Z,4.53
2019-03-25T16:41:28.241Z,3.67
2019-03-25T16:43:58.841Z,4.20
2019-03-25T16:46:29.088Z,2.98
2019-03-25T16:49:00.171Z,3.85
2019-03-25T16:51:30.767Z,4.30
2019-03-25T16:54:02.091Z,3.10
2019-03-25T16:56:32.335Z,5.92
2019-03-25T16:59:03.533Z,3.40
2019-03-25T17:01:34.253Z,5.17
2019-03-25T17:04:04.615Z,5.60
2019-03-25T17:06:35.098Z,3.20
2019-03-25T17:09:06.418Z,12.90
2019-03-25T17:11:37.143Z,7.20
2019-03-25T17:14:07.505Z,5.73
2019-03-25T17:16:37.747Z,3.13
2019-03-25T17:19:08.467Z,2.40
2019-03-25T17:21:58.441Z,3.40
2019-03-25T17:24:28.088Z,3.90
2019-03-25T17:26:57.679Z,2.10
2019-03-25T17:29:28.046Z,3.53
2019-03-25T17:31:57.970Z,5.80
2019-03-25T17:34:27.876Z,5.30
2019-03-25T17:36:58.004Z,3.17
2019-03-25T17:39:28.323Z,3.93
2019-03-25T17:41:58.292Z,1.60
2019-03-25T17:44:27.731Z,4.87
2019-03-25T17:46:57.235Z,1.80
2019-03-25T17:49:26.785Z,5.58
2019-03-25T17:51:56.639Z,1.27
2019-03-25T17:54:26.308Z,3.27
2019-03-25T17:56:55.969Z,1.67
2019-03-25T17:59:25.789Z,1.60
2019-03-25T18:01:55.525Z,1.35
2019-03-25T18:04:25.116Z,1.87
2019-03-25T18:06:55.116Z,1.30
2019-03-25T18:09:24.707Z,1.00
2019-03-25T18:11:54.647Z,1.30
2019-03-25T18:14:24.593Z,1.60
2019-03-25T18:16:54.615Z,2.67
2019-03-25T18:19:24.232Z,3.50
2019-03-25T18:21:54.108Z,3.30
2019-03-25T18:24:23.919Z,3.03
2019-03-25T18:26:53.560Z,3.60
2019-03-25T18:29:23.473Z,11.87
2019-03-25T18:31:53.084Z,6.77
2019-03-25T18:34:22.944Z,3.00
2019-03-25T18:36:52.427Z,2.03
2019-03-25T18:39:22.262Z,2.93
2019-03-25T18:41:52.176Z,2.57
2019-03-25T18:44:22.005Z,4.90
2019-03-25T18:46:51.925Z,3.20
2019-03-25T18:49:21.503Z,4.53
2019-03-25T18:51:51.076Z,8.93
2019-03-25T18:54:20.670Z,9.60
2019-03-25T18:56:50.634Z,11.87
2019-03-25T18:59:20.240Z,20.50
2019-03-25T19:01:54.718Z,14.37
2019-03-25T19:04:22.567Z,2.83
2019-03-25T19:06:52.125Z,1.90
2019-03-25T19:09:21.682Z,3.03
2019-03-25T19:11:51.480Z,2.67
2019-03-25T19:14:21.373Z,2.60
2019-03-25T19:16:50.974Z,1.97
2019-03-25T19:19:21.284Z,2.13
2019-03-25T19:21:51.432Z,1.83
2019-03-25T19:24:21.105Z,1.47
2019-03-25T19:26:50.941Z,2.47
2019-03-25T19:29:21.292Z,1.60
2019-03-25T19:31:50.833Z,2.33
2019-03-25T19:34:20.340Z,2.00
2019-03-25T19:36:50.392Z,2.30
2019-03-25T19:39:19.903Z,2.80
2019-03-25T19:41:49.550Z,7.92
2019-03-25T19:44:19.157Z,2.70
2019-03-25T19:46:49.121Z,2.55
2019-03-25T19:49:18.728Z,3.03
2019-03-25T19:51:48.755Z,2.50
2019-03-25T19:54:18.336Z,2.50
2019-03-25T19:56:48.012Z,2.90
2019-03-25T19:59:17.900Z,4.37
2019-03-25T20:01:47.548Z,3.40
2019-03-25T20:04:17.156Z,2.50
2019-03-25T20:06:46.804Z,3.47
2019-03-25T20:09:16.420Z,3.77
2019-03-25T20:11:46.051Z,3.70
2019-03-25T20:14:15.936Z,4.92
2019-03-25T20:16:45.753Z,6.55
2019-03-25T20:19:15.588Z,3.75
2019-03-25T20:21:45.136Z,4.80
2019-03-25T20:24:14.675Z,3.85
2019-03-25T20:26:44.274Z,10.08
2019-03-25T20:29:13.894Z,15.37
2019-03-25T20:31:43.807Z,13.93
2019-03-25T20:34:13.705Z,14.85
2019-03-25T20:36:43.517Z,7.53
2019-03-25T20:39:13.401Z,6.40
2019-03-25T20:41:43.040Z,11.65
2019-03-25T20:44:12.607Z,4.10
2019-03-25T20:46:42.350Z,4.72
2019-03-25T20:49:11.980Z,4.20
2019-03-25T20:51:41.863Z,3.60
2019-03-25T20:54:11.645Z,3.90
2019-03-25T20:56:41.355Z,3.92
2019-03-25T20:59:11.305Z,7.67
2019-03-25T21:01:40.922Z,5.45
2019-03-25T21:04:10.904Z,4.15
2019-03-25T21:06:40.536Z,3.70
2019-03-25T21:09:10.464Z,5.78
2019-03-25T21:11:40.102Z,6.70
2019-03-25T21:14:09.688Z,5.80
2019-03-25T21:16:39.674Z,6.28
2019-03-25T21:19:09.647Z,6.08
2019-03-25T21:21:40.523Z,5.87
2019-03-25T21:24:10.039Z,3.90
2019-03-25T21:26:39.822Z,4.87
2019-03-25T21:29:09.709Z,5.00
2019-03-25T21:31:39.742Z,4.00
2019-03-25T21:34:09.596Z,5.23
2019-03-25T21:36:39.558Z,4.92
2019-03-25T21:39:09.167Z,3.98
2019-03-25T21:41:38.763Z,3.50
2019-03-25T21:44:09.027Z,3.75
2019-03-25T21:46:39.425Z,3.47
2019-03-25T21:49:09.091Z,4.20
2019-03-25T21:51:39.392Z,3.50
2019-03-25T21:54:08.948Z,4.10
2019-03-25T21:56:38.528Z,4.83
2019-03-25T21:59:08.101Z,4.20
2019-03-25T22:01:37.809Z,3.92
2019-03-25T22:04:07.627Z,8.15
2019-03-25T22:06:37.554Z,6.85
2019-03-25T22:09:07.847Z,3.70
2019-03-25T22:11:37.735Z,4.72
2019-03-25T22:14:07.315Z,3.80
2019-03-25T22:16:37.205Z,4.10
2019-03-25T22:19:06.804Z,4.30
2019-03-25T22:21:36.934Z,3.83
2019-03-25T22:24:06.788Z,3.73
2019-03-25T22:26:37.369Z,3.50
2019-03-25T22:29:07.188Z,4.20
2019-03-25T22:31:36.997Z,4.05
2019-03-25T22:34:06.914Z,5.75
2019-03-25T22:36:36.445Z,3.83
2019-03-25T22:39:07.803Z,4.10
2019-03-25T22:41:37.405Z,4.12
2019-03-25T22:44:06.900Z,5.33
2019-03-25T22:46:36.675Z,4.40
2019-03-25T22:49:06.275Z,3.30
2019-03-25T22:51:35.857Z,3.40
2019-03-25T22:54:05.706Z,3.83
2019-03-25T22:56:35.592Z,6.63
2019-03-25T22:59:05.560Z,3.63
2019-03-25T23:01:35.160Z,3.73
2019-03-25T23:04:05.064Z,6.90
2019-03-25T23:06:34.634Z,3.17
2019-03-25T23:09:05.502Z,3.80
2019-03-25T23:11:35.238Z,5.47
2019-03-25T23:14:05.417Z,4.07
2019-03-25T23:16:35.372Z,4.03
2019-03-25T23:19:05.168Z,4.97
2019-03-25T23:21:35.069Z,5.83
2019-03-25T23:24:05.095Z,5.00
2019-03-25T23:26:35.018Z,5.10
2019-03-25T23:29:04.871Z,4.17
2019-03-25T23:31:34.565Z,5.07
2019-03-25T23:34:04.434Z,4.83
2019-03-25T23:36:34.036Z,12.70
2019-03-25T23:39:05.604Z,15.53
2019-03-25T23:41:35.085Z,3.80
2019-03-25T23:44:04.676Z,5.23
2019-03-25T23:46:34.519Z,10.47
2019-03-25T23:49:04.368Z,6.50
2019-03-25T23:51:34.139Z,4.10
2019-03-25T23:54:13.659Z,5.00
2019-03-25T23:56:43.801Z,8.50
2019-03-25T23:59:13.381Z,3.93
